sensor_id;sensor_type;location;lat;lon;timestamp;temperature;humidity
30244;DHT22;64022;53.652;9.792;2024-01-07T00:01:15;20.90;55.50
30244;DHT22;64022;53.652;9.792;2024-01-07T00:03:41;20.90;55.40
30244;DHT22;64022;53.652;9.792;2024-01-07T00:06:08;20.90;55.50
30244;DHT22;64022;53.652;9.792;2024-01-07T00:08:35;20.90;55.30
30244;DHT22;64022;53.652;9.792;2024-01-07T00:11:02;21.00;55.60
30244;DHT22;64022;53.652;9.792;2024-01-07T00:13:28;20.90;55.40
30244;DHT22;64022;53.652;9.792;2024-01-07T00:15:53;20.90;55.40
30244;DHT22;64022;53.652;9.792;2024-01-07T00:18:20;20.90;55.30
30244;DHT22;64022;53.652;9.792;2024-01-07T00:20:48;20.90;55.40
30244;DHT22;64022;53.652;9.792;2024-01-07T00:23:13;21.00;55.60
30244;DHT22;64022;53.652;9.792;2024-01-07T00:25:39;20.90;55.40
30244;DHT22;64022;53.652;9.792;2024-01-07T00:28:04;20.90;55.50
30244;DHT22;64022;53.652;9.792;2024-01-07T00:30:31;20.90;55.30
30244;DHT22;64022;53.652;9.792;2024-01-07T00:32:56;20.90;55.30
30244;DHT22;64022;53.652;9.792;2024-01-07T00:35:22;20.90;55.20
30244;DHT22;64022;53.652;9.792;2024-01-07T00:37:49;20.90;55.30
30244;DHT22;64022;53.652;9.792;2024-01-07T00:40:14;20.90;55.30
30244;DHT22;64022;53.652;9.792;2024-01-07T00:42:40;21.00;55.40
30244;DHT22;64022;53.652;9.792;2024-01-07T00:45:06;20.90;55.30
30244;DHT22;64022;53.652;9.792;2024-01-07T00:47:32;21.00;55.40
30244;DHT22;64022;53.652;9.792;2024-01-07T00:49:58;21.00;55.40
30244;DHT22;64022;53.652;9.792;2024-01-07T00:52:24;21.00;55.30
30244;DHT22;64022;53.652;9.792;2024-01-07T00:54:51;21.00;55.30
30244;DHT22;64022;53.652;9.792;2024-01-07T00:57:16;21.00;55.40
30244;DHT22;64022;53.652;9.792;2024-01-07T00:59:42;20.90;55.30
30244;DHT22;64022;53.652;9.792;2024-01-07T01:02:07;21.00;55.50
30244;DHT22;64022;53.652;9.792;2024-01-07T01:04:34;21.00;55.40
30244;DHT22;64022;53.652;9.792;2024-01-07T01:06:59;21.00;55.50
30244;DHT22;64022;53.652;9.792;2024-01-07T01:09:27;21.00;55.30
30244;DHT22;64022;53.652;9.792;2024-01-07T01:11:53;21.00;55.80
30244;DHT22;64022;53.652;9.792;2024-01-07T01:14:18;21.00;55.30
30244;DHT22;64022;53.652;9.792;2024-01-07T01:16:44;21.00;55.40
30244;DHT22;64022;53.652;9.792;2024-01-07T01:19:10;21.00;55.40
30244;DHT22;64022;53.652;9.792;2024-01-07T01:21:36;20.90;55.20
30244;DHT22;64022;53.652;9.792;2024-01-07T01:24:01;21.00;55.30
30244;DHT22;64022;53.652;9.792;2024-01-07T01:26:27;20.90;55.30
30244;DHT22;64022;53.652;9.792;2024-01-07T01:28:53;21.00;55.40
30244;DHT22;64022;53.652;9.792;2024-01-07T01:31:18;20.90;55.30
30244;DHT22;64022;53.652;9.792;2024-01-07T01:33:44;20.90;55.30
30244;DHT22;64022;53.652;9.792;2024-01-07T01:36:10;20.90;55.30
30244;DHT22;64022;53.652;9.792;2024-01-07T01:38:36;20.90;55.20
30244;DHT22;64022;53.652;9.792;2024-01-07T01:41:01;21.00;55.30
30244;DHT22;64022;53.652;9.792;2024-01-07T01:43:28;21.00;55.30
30244;DHT22;64022;53.652;9.792;2024-01-07T01:45:54;21.00;55.30
30244;DHT22;64022;53.652;9.792;2024-01-07T01:48:21;20.90;55.20
30244;DHT22;64022;53.652;9.792;2024-01-07T01:50:47;20.90;55.20
30244;DHT22;64022;53.652;9.792;2024-01-07T01:53:14;21.00;55.10
30244;DHT22;64022;53.652;9.792;2024-01-07T01:55:41;20.90;55.10
30244;DHT22;64022;53.652;9.792;2024-01-07T01:58:08;20.90;55.10
30244;DHT22;64022;53.652;9.792;2024-01-07T02:00:35;21.00;55.20
30244;DHT22;64022;53.652;9.792;2024-01-07T02:03:01;20.90;55.30
30244;DHT22;64022;53.652;9.792;2024-01-07T02:05:27;21.00;55.30
30244;DHT22;64022;53.652;9.792;2024-01-07T02:07:53;21.00;55.40
30244;DHT22;64022;53.652;9.792;2024-01-07T02:10:20;21.00;55.30
30244;DHT22;64022;53.652;9.792;2024-01-07T02:12:46;21.00;55.20
30244;DHT22;64022;53.652;9.792;2024-01-07T02:15:11;21.00;55.30
30244;DHT22;64022;53.652;9.792;2024-01-07T02:17:38;20.90;55.30
30244;DHT22;64022;53.652;9.792;2024-01-07T02:20:04;20.90;55.20
30244;DHT22;64022;53.652;9.792;2024-01-07T02:22:30;21.00;55.30
30244;DHT22;64022;53.652;9.792;2024-01-07T02:24:55;20.90;55.40
30244;DHT22;64022;53.652;9.792;2024-01-07T02:27:21;21.00;55.40
30244;DHT22;64022;53.652;9.792;2024-01-07T02:29:46;21.00;55.50
30244;DHT22;64022;53.652;9.792;2024-01-07T02:32:12;20.90;55.30
30244;DHT22;64022;53.652;9.792;2024-01-07T02:34:38;21.00;55.30
30244;DHT22;64022;53.652;9.792;2024-01-07T02:37:03;20.90;55.10
30244;DHT22;64022;53.652;9.792;2024-01-07T02:39:30;21.00;55.20
30244;DHT22;64022;53.652;9.792;2024-01-07T02:41:58;21.00;55.20
30244;DHT22;64022;53.652;9.792;2024-01-07T02:44:24;21.00;55.10
30244;DHT22;64022;53.652;9.792;2024-01-07T02:46:50;20.90;55.10
30244;DHT22;64022;53.652;9.792;2024-01-07T02:49:15;21.00;55.20
30244;DHT22;64022;53.652;9.792;2024-01-07T02:51:41;21.00;55.20
30244;DHT22;64022;53.652;9.792;2024-01-07T02:54:08;21.00;55.30
30244;DHT22;64022;53.652;9.792;2024-01-07T02:56:34;20.90;55.10
30244;DHT22;64022;53.652;9.792;2024-01-07T02:59:00;20.90;55.10
30244;DHT22;64022;53.652;9.792;2024-01-07T03:01:25;20.90;55.00
30244;DHT22;64022;53.652;9.792;2024-01-07T03:03:51;21.00;55.20
30244;DHT22;64022;53.652;9.792;2024-01-07T03:06:17;21.00;55.20
30244;DHT22;64022;53.652;9.792;2024-01-07T03:08:43;20.90;55.20
30244;DHT22;64022;53.652;9.792;2024-01-07T03:11:09;20.90;55.20
30244;DHT22;64022;53.652;9.792;2024-01-07T03:13:34;21.00;55.20
30244;DHT22;64022;53.652;9.792;2024-01-07T03:16:00;21.00;55.10
30244;DHT22;64022;53.652;9.792;2024-01-07T03:18:29;21.00;55.00
30244;DHT22;64022;53.652;9.792;2024-01-07T03:20:55;21.00;55.00
30244;DHT22;64022;53.652;9.792;2024-01-07T03:23:21;20.90;55.20
30244;DHT22;64022;53.652;9.792;2024-01-07T03:25:47;20.90;55.10
30244;DHT22;64022;53.652;9.792;2024-01-07T03:28:13;21.00;55.10
30244;DHT22;64022;53.652;9.792;2024-01-07T03:30:38;21.00;55.20
30244;DHT22;64022;53.652;9.792;2024-01-07T03:33:04;20.90;55.20
30244;DHT22;64022;53.652;9.792;2024-01-07T03:35:30;20.90;55.10
30244;DHT22;64022;53.652;9.792;2024-01-07T03:37:55;21.00;55.20
30244;DHT22;64022;53.652;9.792;2024-01-07T03:40:21;20.90;55.10
30244;DHT22;64022;53.652;9.792;2024-01-07T03:42:47;20.90;55.10
30244;DHT22;64022;53.652;9.792;2024-01-07T03:45:12;20.90;55.00
30244;DHT22;64022;53.652;9.792;2024-01-07T03:47:38;21.00;55.10
30244;DHT22;64022;53.652;9.792;2024-01-07T03:50:04;21.00;55.10
30244;DHT22;64022;53.652;9.792;2024-01-07T03:52:31;21.00;55.20
30244;DHT22;64022;53.652;9.792;2024-01-07T03:54:57;20.90;55.10
30244;DHT22;64022;53.652;9.792;2024-01-07T03:57:23;21.00;55.30
30244;DHT22;64022;53.652;9.792;2024-01-07T03:59:49;21.00;55.30
30244;DHT22;64022;53.652;9.792;2024-01-07T04:02:15;20.90;55.10
30244;DHT22;64022;53.652;9.792;2024-01-07T04:04:42;21.00;55.10
30244;DHT22;64022;53.652;9.792;2024-01-07T04:07:07;21.00;55.30
30244;DHT22;64022;53.652;9.792;2024-01-07T04:09:33;21.00;55.20
30244;DHT22;64022;53.652;9.792;2024-01-07T04:11:58;21.00;55.10
30244;DHT22;64022;53.652;9.792;2024-01-07T04:14:24;21.00;55.20
30244;DHT22;64022;53.652;9.792;2024-01-07T04:16:52;21.00;55.10
30244;DHT22;64022;53.652;9.792;2024-01-07T04:19:18;21.00;55.10
30244;DHT22;64022;53.652;9.792;2024-01-07T04:21:46;21.00;55.10
30244;DHT22;64022;53.652;9.792;2024-01-07T04:24:13;21.00;55.10
30244;DHT22;64022;53.652;9.792;2024-01-07T04:26:40;21.00;55.10
30244;DHT22;64022;53.652;9.792;2024-01-07T04:29:05;21.00;55.20
30244;DHT22;64022;53.652;9.792;2024-01-07T04:31:31;21.00;55.20
30244;DHT22;64022;53.652;9.792;2024-01-07T04:33:58;21.00;55.20
30244;DHT22;64022;53.652;9.792;2024-01-07T04:36:23;21.00;55.20
30244;DHT22;64022;53.652;9.792;2024-01-07T04:38:49;21.00;55.10
30244;DHT22;64022;53.652;9.792;2024-01-07T04:41:15;21.00;55.20
30244;DHT22;64022;53.652;9.792;2024-01-07T04:43:42;21.00;55.10
30244;DHT22;64022;53.652;9.792;2024-01-07T04:46:08;21.00;55.10
30244;DHT22;64022;53.652;9.792;2024-01-07T04:48:36;21.00;55.10
30244;DHT22;64022;53.652;9.792;2024-01-07T04:51:01;21.00;55.00
30244;DHT22;64022;53.652;9.792;2024-01-07T04:53:27;21.00;55.00
30244;DHT22;64022;53.652;9.792;2024-01-07T04:55:55;21.00;55.00
30244;DHT22;64022;53.652;9.792;2024-01-07T04:58:20;21.00;55.10
30244;DHT22;64022;53.652;9.792;2024-01-07T05:00:46;21.00;54.90
30244;DHT22;64022;53.652;9.792;2024-01-07T05:03:12;21.00;54.80
30244;DHT22;64022;53.652;9.792;2024-01-07T05:05:37;21.00;55.00
30244;DHT22;64022;53.652;9.792;2024-01-07T05:08:04;21.00;55.00
30244;DHT22;64022;53.652;9.792;2024-01-07T05:10:29;21.10;55.30
30244;DHT22;64022;53.652;9.792;2024-01-07T05:12:55;21.00;55.00
30244;DHT22;64022;53.652;9.792;2024-01-07T05:15:20;21.00;55.10
30244;DHT22;64022;53.652;9.792;2024-01-07T05:17:46;21.00;55.10
30244;DHT22;64022;53.652;9.792;2024-01-07T05:20:11;21.10;55.20
30244;DHT22;64022;53.652;9.792;2024-01-07T05:22:38;21.00;55.00
30244;DHT22;64022;53.652;9.792;2024-01-07T05:25:03;21.00;55.10
30244;DHT22;64022;53.652;9.792;2024-01-07T05:27:30;21.00;54.90
30244;DHT22;64022;53.652;9.792;2024-01-07T05:29:55;21.00;55.60
30244;DHT22;64022;53.652;9.792;2024-01-07T05:32:21;21.00;55.10
30244;DHT22;64022;53.652;9.792;2024-01-07T05:34:48;21.00;55.10
30244;DHT22;64022;53.652;9.792;2024-01-07T05:37:14;21.00;55.00
30244;DHT22;64022;53.652;9.792;2024-01-07T05:39:39;21.00;55.10
30244;DHT22;64022;53.652;9.792;2024-01-07T05:42:05;21.00;55.10
30244;DHT22;64022;53.652;9.792;2024-01-07T05:44:31;21.00;55.00
30244;DHT22;64022;53.652;9.792;2024-01-07T05:46:57;21.00;55.10
30244;DHT22;64022;53.652;9.792;2024-01-07T05:49:24;21.00;55.10
30244;DHT22;64022;53.652;9.792;2024-01-07T05:51:50;21.10;55.10
30244;DHT22;64022;53.652;9.792;2024-01-07T05:54:15;21.10;55.10
30244;DHT22;64022;53.652;9.792;2024-01-07T05:56:41;21.00;55.10
30244;DHT22;64022;53.652;9.792;2024-01-07T05:59:07;21.10;55.10
30244;DHT22;64022;53.652;9.792;2024-01-07T06:01:34;21.10;55.20
30244;DHT22;64022;53.652;9.792;2024-01-07T06:04:00;21.10;55.20
30244;DHT22;64022;53.652;9.792;2024-01-07T06:06:26;21.10;55.10
30244;DHT22;64022;53.652;9.792;2024-01-07T06:08:51;21.10;55.10
30244;DHT22;64022;53.652;9.792;2024-01-07T06:11:17;21.10;55.20
30244;DHT22;64022;53.652;9.792;2024-01-07T06:13:46;21.10;55.10
30244;DHT22;64022;53.652;9.792;2024-01-07T06:16:11;21.10;55.20
30244;DHT22;64022;53.652;9.792;2024-01-07T06:18:37;21.10;55.20
30244;DHT22;64022;53.652;9.792;2024-01-07T06:21:03;21.10;55.10
30244;DHT22;64022;53.652;9.792;2024-01-07T06:23:33;21.10;55.20
30244;DHT22;64022;53.652;9.792;2024-01-07T06:25:58;21.10;55.30
30244;DHT22;64022;53.652;9.792;2024-01-07T06:28:25;21.10;55.30
30244;DHT22;64022;53.652;9.792;2024-01-07T06:30:50;21.10;55.30
30244;DHT22;64022;53.652;9.792;2024-01-07T06:33:16;21.10;55.40
30244;DHT22;64022;53.652;9.792;2024-01-07T06:35:42;21.10;55.20
30244;DHT22;64022;53.652;9.792;2024-01-07T06:38:08;21.10;55.20
30244;DHT22;64022;53.652;9.792;2024-01-07T06:40:34;21.10;55.30
30244;DHT22;64022;53.652;9.792;2024-01-07T06:43:00;21.10;55.20
30244;DHT22;64022;53.652;9.792;2024-01-07T06:45:28;21.10;55.30
30244;DHT22;64022;53.652;9.792;2024-01-07T06:47:54;21.10;55.10
30244;DHT22;64022;53.652;9.792;2024-01-07T06:50:20;21.10;55.10
30244;DHT22;64022;53.652;9.792;2024-01-07T06:52:46;21.10;55.10
30244;DHT22;64022;53.652;9.792;2024-01-07T06:55:12;21.10;55.00
30244;DHT22;64022;53.652;9.792;2024-01-07T06:57:37;21.10;55.10
30244;DHT22;64022;53.652;9.792;2024-01-07T07:00:03;21.10;55.10
30244;DHT22;64022;53.652;9.792;2024-01-07T07:02:30;21.10;55.10
30244;DHT22;64022;53.652;9.792;2024-01-07T07:04:56;21.10;55.70
30244;DHT22;64022;53.652;9.792;2024-01-07T07:07:23;21.10;55.10
30244;DHT22;64022;53.652;9.792;2024-01-07T07:09:49;21.10;55.10
30244;DHT22;64022;53.652;9.792;2024-01-07T07:12:15;21.10;55.10
30244;DHT22;64022;53.652;9.792;2024-01-07T07:14:41;21.10;55.10
30244;DHT22;64022;53.652;9.792;2024-01-07T07:17:06;21.20;55.00
30244;DHT22;64022;53.652;9.792;2024-01-07T07:19:32;21.10;55.00
30244;DHT22;64022;53.652;9.792;2024-01-07T07:21:58;21.10;55.00
30244;DHT22;64022;53.652;9.792;2024-01-07T07:24:24;21.10;55.10
30244;DHT22;64022;53.652;9.792;2024-01-07T07:26:50;21.10;55.00
30244;DHT22;64022;53.652;9.792;2024-01-07T07:29:15;21.10;55.00
30244;DHT22;64022;53.652;9.792;2024-01-07T07:31:41;21.10;55.10
30244;DHT22;64022;53.652;9.792;2024-01-07T07:34:08;21.20;55.10
30244;DHT22;64022;53.652;9.792;2024-01-07T07:36:34;21.10;55.00
30244;DHT22;64022;53.652;9.792;2024-01-07T07:39:01;21.20;55.10
30244;DHT22;64022;53.652;9.792;2024-01-07T07:41:27;21.20;55.10
30244;DHT22;64022;53.652;9.792;2024-01-07T07:43:54;21.20;55.10
30244;DHT22;64022;53.652;9.792;2024-01-07T07:46:20;21.20;55.20
30244;DHT22;64022;53.652;9.792;2024-01-07T07:48:45;21.10;55.20
30244;DHT22;64022;53.652;9.792;2024-01-07T07:51:11;21.20;55.20
30244;DHT22;64022;53.652;9.792;2024-01-07T07:53:38;21.20;55.20
30244;DHT22;64022;53.652;9.792;2024-01-07T07:56:04;21.20;55.10
30244;DHT22;64022;53.652;9.792;2024-01-07T07:58:30;21.20;55.30
30244;DHT22;64022;53.652;9.792;2024-01-07T08:00:55;21.20;55.20
30244;DHT22;64022;53.652;9.792;2024-01-07T08:03:21;21.20;55.20
30244;DHT22;64022;53.652;9.792;2024-01-07T08:05:47;21.20;55.20
30244;DHT22;64022;53.652;9.792;2024-01-07T08:08:13;21.20;55.10
30244;DHT22;64022;53.652;9.792;2024-01-07T08:10:38;21.20;55.10
30244;DHT22;64022;53.652;9.792;2024-01-07T08:13:04;21.20;55.10
30244;DHT22;64022;53.652;9.792;2024-01-07T08:15:30;21.20;55.00
30244;DHT22;64022;53.652;9.792;2024-01-07T08:17:55;21.20;55.00
30244;DHT22;64022;53.652;9.792;2024-01-07T08:20:21;21.30;55.10
30244;DHT22;64022;53.652;9.792;2024-01-07T08:22:48;21.20;54.90
30244;DHT22;64022;53.652;9.792;2024-01-07T08:25:13;21.10;52.80
30244;DHT22;64022;53.652;9.792;2024-01-07T08:27:43;20.70;50.50
30244;DHT22;64022;53.652;9.792;2024-01-07T08:30:09;20.40;50.40
30244;DHT22;64022;53.652;9.792;2024-01-07T08:32:35;20.20;51.20
30244;DHT22;64022;53.652;9.792;2024-01-07T08:35:01;20.10;51.80
30244;DHT22;64022;53.652;9.792;2024-01-07T08:37:27;20.20;52.20
30244;DHT22;64022;53.652;9.792;2024-01-07T08:39:52;20.20;52.50
30244;DHT22;64022;53.652;9.792;2024-01-07T08:42:19;20.20;52.60
30244;DHT22;64022;53.652;9.792;2024-01-07T08:44:45;20.30;53.00
30244;DHT22;64022;53.652;9.792;2024-01-07T08:47:12;20.30;53.20
30244;DHT22;64022;53.652;9.792;2024-01-07T08:49:38;20.40;53.30
30244;DHT22;64022;53.652;9.792;2024-01-07T08:52:05;20.40;53.50
30244;DHT22;64022;53.652;9.792;2024-01-07T08:54:30;20.50;53.50
30244;DHT22;64022;53.652;9.792;2024-01-07T08:56:56;20.50;53.40
30244;DHT22;64022;53.652;9.792;2024-01-07T08:59:21;20.60;53.70
30244;DHT22;64022;53.652;9.792;2024-01-07T09:01:47;20.60;53.70
30244;DHT22;64022;53.652;9.792;2024-01-07T09:04:13;20.60;53.70
30244;DHT22;64022;53.652;9.792;2024-01-07T09:06:39;20.60;53.70
30244;DHT22;64022;53.652;9.792;2024-01-07T09:09:06;20.70;53.70
30244;DHT22;64022;53.652;9.792;2024-01-07T09:11:32;20.70;53.90
30244;DHT22;64022;53.652;9.792;2024-01-07T09:13:57;20.70;53.70
30244;DHT22;64022;53.652;9.792;2024-01-07T09:16:23;20.80;53.80
30244;DHT22;64022;53.652;9.792;2024-01-07T09:18:49;20.70;53.70
30244;DHT22;64022;53.652;9.792;2024-01-07T09:21:16;20.80;53.80
30244;DHT22;64022;53.652;9.792;2024-01-07T09:23:41;20.80;54.00
30244;DHT22;64022;53.652;9.792;2024-01-07T09:26:11;20.80;53.80
30244;DHT22;64022;53.652;9.792;2024-01-07T09:28:39;20.80;54.00
30244;DHT22;64022;53.652;9.792;2024-01-07T09:31:04;20.90;53.90
30244;DHT22;64022;53.652;9.792;2024-01-07T09:33:30;20.90;54.00
30244;DHT22;64022;53.652;9.792;2024-01-07T09:35:55;20.90;53.90
30244;DHT22;64022;53.652;9.792;2024-01-07T09:38:21;20.90;54.00
30244;DHT22;64022;53.652;9.792;2024-01-07T09:40:47;20.90;53.90
30244;DHT22;64022;53.652;9.792;2024-01-07T09:43:13;20.90;54.00
30244;DHT22;64022;53.652;9.792;2024-01-07T09:45:41;20.90;54.00
30244;DHT22;64022;53.652;9.792;2024-01-07T09:48:07;20.90;54.00
30244;DHT22;64022;53.652;9.792;2024-01-07T09:50:33;20.90;53.90
30244;DHT22;64022;53.652;9.792;2024-01-07T09:52:59;20.90;53.90
30244;DHT22;64022;53.652;9.792;2024-01-07T09:55:31;20.90;53.90
30244;DHT22;64022;53.652;9.792;2024-01-07T09:57:58;20.90;54.00
30244;DHT22;64022;53.652;9.792;2024-01-07T10:00:25;20.90;54.00
30244;DHT22;64022;53.652;9.792;2024-01-07T10:02:52;21.00;54.00
30244;DHT22;64022;53.652;9.792;2024-01-07T10:05:20;20.90;54.00
30244;DHT22;64022;53.652;9.792;2024-01-07T10:07:46;20.90;53.90
30244;DHT22;64022;53.652;9.792;2024-01-07T10:10:14;21.00;54.00
30244;DHT22;64022;53.652;9.792;2024-01-07T10:12:40;21.00;54.00
30244;DHT22;64022;53.652;9.792;2024-01-07T10:15:06;21.00;54.10
30244;DHT22;64022;53.652;9.792;2024-01-07T10:17:34;21.00;53.90
30244;DHT22;64022;53.652;9.792;2024-01-07T10:20:00;21.00;54.00
30244;DHT22;64022;53.652;9.792;2024-01-07T10:22:26;21.00;54.10
30244;DHT22;64022;53.652;9.792;2024-01-07T10:24:52;21.00;54.00
30244;DHT22;64022;53.652;9.792;2024-01-07T10:27:18;21.00;53.90
30244;DHT22;64022;53.652;9.792;2024-01-07T10:29:43;21.00;54.10
30244;DHT22;64022;53.652;9.792;2024-01-07T10:32:15;21.00;54.00
30244;DHT22;64022;53.652;9.792;2024-01-07T10:34:41;21.00;54.00
30244;DHT22;64022;53.652;9.792;2024-01-07T10:37:10;21.00;53.90
30244;DHT22;64022;53.652;9.792;2024-01-07T10:39:40;21.00;54.00
30244;DHT22;64022;53.652;9.792;2024-01-07T10:42:05;21.00;54.00
30244;DHT22;64022;53.652;9.792;2024-01-07T10:44:32;21.00;53.90
30244;DHT22;64022;53.652;9.792;2024-01-07T10:46:59;21.00;53.80
30244;DHT22;64022;53.652;9.792;2024-01-07T10:49:25;20.90;53.00
30244;DHT22;64022;53.652;9.792;2024-01-07T10:51:56;20.90;53.20
30244;DHT22;64022;53.652;9.792;2024-01-07T10:54:23;20.80;53.40
30244;DHT22;64022;53.652;9.792;2024-01-07T10:56:51;20.80;53.40
30244;DHT22;64022;53.652;9.792;2024-01-07T10:59:18;20.90;53.50
30244;DHT22;64022;53.652;9.792;2024-01-07T11:01:45;20.90;53.50
30244;DHT22;64022;53.652;9.792;2024-01-07T11:04:12;20.90;53.60
30244;DHT22;64022;53.652;9.792;2024-01-07T11:06:43;20.90;53.60
30244;DHT22;64022;53.652;9.792;2024-01-07T11:09:16;20.90;53.60
30244;DHT22;64022;53.652;9.792;2024-01-07T11:11:44;20.90;53.50
30244;DHT22;64022;53.652;9.792;2024-01-07T11:16:55;20.40;49.30
30244;DHT22;64022;53.652;9.792;2024-01-07T11:19:20;20.00;47.90
30244;DHT22;64022;53.652;9.792;2024-01-07T11:21:48;19.70;47.10
30244;DHT22;64022;53.652;9.792;2024-01-07T11:27:03;19.00;45.30
30244;DHT22;64022;53.652;9.792;2024-01-07T11:29:33;18.60;45.40
30244;DHT22;64022;53.652;9.792;2024-01-07T11:31:59;18.30;44.00
30244;DHT22;64022;53.652;9.792;2024-01-07T11:34:40;18.00;43.90
30244;DHT22;64022;53.652;9.792;2024-01-07T11:37:12;17.80;43.80
30244;DHT22;64022;53.652;9.792;2024-01-07T11:39:42;17.60;43.60
30244;DHT22;64022;53.652;9.792;2024-01-07T11:42:07;17.40;44.30
30244;DHT22;64022;53.652;9.792;2024-01-07T11:44:35;17.40;45.40
30244;DHT22;64022;53.652;9.792;2024-01-07T11:47:04;17.50;46.10
30244;DHT22;64022;53.652;9.792;2024-01-07T11:49:33;17.60;46.90
30244;DHT22;64022;53.652;9.792;2024-01-07T11:51:59;17.70;47.60
30244;DHT22;64022;53.652;9.792;2024-01-07T11:54:25;17.90;47.90
30244;DHT22;64022;53.652;9.792;2024-01-07T11:56:50;18.00;48.10
30244;DHT22;64022;53.652;9.792;2024-01-07T11:59:16;18.00;47.40
30244;DHT22;64022;53.652;9.792;2024-01-07T12:01:42;18.00;47.80
30244;DHT22;64022;53.652;9.792;2024-01-07T12:04:09;18.10;48.10
30244;DHT22;64022;53.652;9.792;2024-01-07T12:06:38;18.20;48.40
30244;DHT22;64022;53.652;9.792;2024-01-07T12:09:03;18.30;48.70
30244;DHT22;64022;53.652;9.792;2024-01-07T12:11:29;18.40;48.90
30244;DHT22;64022;53.652;9.792;2024-01-07T12:13:56;18.50;49.10
30244;DHT22;64022;53.652;9.792;2024-01-07T12:16:22;18.60;49.20
30244;DHT22;64022;53.652;9.792;2024-01-07T12:18:48;18.60;49.40
30244;DHT22;64022;53.652;9.792;2024-01-07T12:21:18;18.70;49.60
30244;DHT22;64022;53.652;9.792;2024-01-07T12:23:43;18.80;49.60
30244;DHT22;64022;53.652;9.792;2024-01-07T12:26:13;18.80;49.80
30244;DHT22;64022;53.652;9.792;2024-01-07T12:28:39;18.90;49.80
30244;DHT22;64022;53.652;9.792;2024-01-07T12:31:04;19.00;50.00
30244;DHT22;64022;53.652;9.792;2024-01-07T12:33:30;19.00;50.00
30244;DHT22;64022;53.652;9.792;2024-01-07T12:35:57;19.10;50.10
30244;DHT22;64022;53.652;9.792;2024-01-07T12:38:27;19.20;50.20
30244;DHT22;64022;53.652;9.792;2024-01-07T12:40:53;19.20;50.20
30244;DHT22;64022;53.652;9.792;2024-01-07T12:43:19;19.20;50.20
30244;DHT22;64022;53.652;9.792;2024-01-07T12:45:45;19.30;50.40
30244;DHT22;64022;53.652;9.792;2024-01-07T12:48:12;19.30;50.50
30244;DHT22;64022;53.652;9.792;2024-01-07T12:50:39;19.40;50.50
30244;DHT22;64022;53.652;9.792;2024-01-07T12:53:05;19.40;50.50
30244;DHT22;64022;53.652;9.792;2024-01-07T12:55:31;19.50;50.50
30244;DHT22;64022;53.652;9.792;2024-01-07T12:57:58;19.50;50.50
30244;DHT22;64022;53.652;9.792;2024-01-07T13:00:26;19.60;50.50
30244;DHT22;64022;53.652;9.792;2024-01-07T13:02:55;19.60;50.50
30244;DHT22;64022;53.652;9.792;2024-01-07T13:05:21;19.60;50.60
30244;DHT22;64022;53.652;9.792;2024-01-07T13:07:47;19.70;50.50
30244;DHT22;64022;53.652;9.792;2024-01-07T13:10:13;19.70;50.60
30244;DHT22;64022;53.652;9.792;2024-01-07T13:12:38;19.70;50.40
30244;DHT22;64022;53.652;9.792;2024-01-07T13:15:05;19.70;50.60
30244;DHT22;64022;53.652;9.792;2024-01-07T13:17:30;19.70;50.40
30244;DHT22;64022;53.652;9.792;2024-01-07T13:20:01;19.80;50.50
30244;DHT22;64022;53.652;9.792;2024-01-07T13:22:27;19.80;50.50
30244;DHT22;64022;53.652;9.792;2024-01-07T13:24:52;19.80;50.50
30244;DHT22;64022;53.652;9.792;2024-01-07T13:27:22;19.80;50.50
30244;DHT22;64022;53.652;9.792;2024-01-07T13:29:53;19.80;50.50
30244;DHT22;64022;53.652;9.792;2024-01-07T13:32:19;19.80;50.60
30244;DHT22;64022;53.652;9.792;2024-01-07T13:34:45;19.80;50.70
30244;DHT22;64022;53.652;9.792;2024-01-07T13:37:10;19.90;50.60
30244;DHT22;64022;53.652;9.792;2024-01-07T13:39:37;19.90;50.70
30244;DHT22;64022;53.652;9.792;2024-01-07T13:42:04;19.90;50.60
30244;DHT22;64022;53.652;9.792;2024-01-07T13:44:30;19.90;50.60
30244;DHT22;64022;53.652;9.792;2024-01-07T13:46:55;19.90;50.60
30244;DHT22;64022;53.652;9.792;2024-01-07T13:49:21;20.00;50.70
30244;DHT22;64022;53.652;9.792;2024-01-07T13:51:46;20.00;50.90
30244;DHT22;64022;53.652;9.792;2024-01-07T13:54:12;20.00;51.00
30244;DHT22;64022;53.652;9.792;2024-01-07T13:56:40;20.00;50.90
30244;DHT22;64022;53.652;9.792;2024-01-07T13:59:09;20.00;51.00
30244;DHT22;64022;53.652;9.792;2024-01-07T14:01:35;20.00;51.00
30244;DHT22;64022;53.652;9.792;2024-01-07T14:04:01;20.00;51.00
30244;DHT22;64022;53.652;9.792;2024-01-07T14:06:27;20.00;51.00
30244;DHT22;64022;53.652;9.792;2024-01-07T14:08:52;20.10;51.10
30244;DHT22;64022;53.652;9.792;2024-01-07T14:11:19;20.00;50.70
30244;DHT22;64022;53.652;9.792;2024-01-07T14:13:46;20.10;50.90
30244;DHT22;64022;53.652;9.792;2024-01-07T14:16:12;20.10;51.10
30244;DHT22;64022;53.652;9.792;2024-01-07T14:18:39;20.10;51.10
30244;DHT22;64022;53.652;9.792;2024-01-07T14:21:05;20.10;51.10
30244;DHT22;64022;53.652;9.792;2024-01-07T14:23:31;20.10;51.00
30244;DHT22;64022;53.652;9.792;2024-01-07T14:25:58;20.10;51.10
30244;DHT22;64022;53.652;9.792;2024-01-07T14:28:24;20.10;51.10
30244;DHT22;64022;53.652;9.792;2024-01-07T14:30:49;20.10;51.10
30244;DHT22;64022;53.652;9.792;2024-01-07T14:33:15;20.20;51.20
30244;DHT22;64022;53.652;9.792;2024-01-07T14:35:40;20.10;51.10
30244;DHT22;64022;53.652;9.792;2024-01-07T14:38:06;20.10;51.20
30244;DHT22;64022;53.652;9.792;2024-01-07T14:40:32;20.20;51.10
30244;DHT22;64022;53.652;9.792;2024-01-07T14:42:58;20.20;51.20
30244;DHT22;64022;53.652;9.792;2024-01-07T14:45:24;20.20;51.20
30244;DHT22;64022;53.652;9.792;2024-01-07T14:47:51;20.20;51.10
30244;DHT22;64022;53.652;9.792;2024-01-07T14:50:17;20.20;51.20
30244;DHT22;64022;53.652;9.792;2024-01-07T14:52:44;20.20;51.20
30244;DHT22;64022;53.652;9.792;2024-01-07T14:55:09;20.20;51.30
30244;DHT22;64022;53.652;9.792;2024-01-07T14:57:35;20.20;51.20
30244;DHT22;64022;53.652;9.792;2024-01-07T15:00:01;20.20;51.20
30244;DHT22;64022;53.652;9.792;2024-01-07T15:02:26;20.20;51.30
30244;DHT22;64022;53.652;9.792;2024-01-07T15:04:52;20.20;51.20
30244;DHT22;64022;53.652;9.792;2024-01-07T15:07:20;20.20;51.40
30244;DHT22;64022;53.652;9.792;2024-01-07T15:09:45;20.20;51.20
30244;DHT22;64022;53.652;9.792;2024-01-07T15:12:11;20.30;51.20
30244;DHT22;64022;53.652;9.792;2024-01-07T15:14:37;20.20;51.20
30244;DHT22;64022;53.652;9.792;2024-01-07T15:17:03;20.30;51.20
30244;DHT22;64022;53.652;9.792;2024-01-07T15:19:29;20.20;51.10
30244;DHT22;64022;53.652;9.792;2024-01-07T15:21:55;20.30;51.20
30244;DHT22;64022;53.652;9.792;2024-01-07T15:24:21;20.30;51.20
30244;DHT22;64022;53.652;9.792;2024-01-07T15:26:48;20.30;51.20
30244;DHT22;64022;53.652;9.792;2024-01-07T15:29:14;20.30;51.20